createdAt,value
2022-09-20T00:01:41.209Z,80.18
2022-09-20T00:04:08.451Z,81.24
2022-09-20T00:06:35.183Z,80.95
2022-09-20T00:09:02.697Z,82.43
2022-09-20T00:11:31.636Z,82.14
2022-09-20T00:14:00.080Z,81.75
2022-09-20T00:16:31.425Z,82.90
2022-09-20T00:18:59.762Z,82.21
2022-09-20T00:21:28.630Z,82.41
2022-09-20T00:23:57.437Z,81.20
2022-09-20T00:26:25.543Z,80.79
2022-09-20T00:28:52.484Z,81.54
2022-09-20T00:31:19.311Z,81.97
2022-09-20T00:34:04.528Z,83.35
2022-09-20T00:36:31.451Z,82.19
2022-09-20T00:38:59.775Z,83.15
2022-09-20T00:41:26.844Z,84.21
2022-09-20T00:43:54.118Z,84.13
2022-09-20T00:46:26.728Z,84.77
2022-09-20T00:48:56.173Z,83.64
2022-09-20T00:51:29.175Z,83.15
2022-09-20T00:53:56.414Z,82.87
2022-09-20T00:56:28.021Z,83.46
2022-09-20T00:59:13.041Z,82.92
2022-09-20T01:01:39.617Z,82.91
2022-09-20T01:04:06.335Z,82.39
2022-09-20T01:06:33.323Z,83.04
2022-09-20T01:09:02.583Z,83.29
2022-09-20T01:11:30.565Z,83.03
2022-09-20T01:13:57.602Z,83.52
2022-09-20T01:16:24.966Z,82.62
2022-09-20T01:18:52.069Z,82.27
2022-09-20T01:21:19.250Z,81.50
2022-09-20T01:24:04.121Z,81.74
2022-09-20T01:26:58.359Z,81.72
2022-09-20T01:29:51.925Z,81.31
2022-09-20T01:32:21.755Z,80.25
2022-09-20T01:34:53.017Z,80.31
2022-09-20T01:37:22.519Z,79.49
2022-09-20T01:40:10.686Z,80.27
2022-09-20T01:42:39.586Z,80.29
2022-09-20T01:45:19.038Z,80.93
2022-09-20T01:47:58.163Z,82.22
2022-09-20T01:50:38.653Z,83.73
2022-09-20T01:53:11.301Z,83.73
2022-09-20T01:56:02.416Z,84.63
2022-09-20T01:59:19.812Z,84.47
2022-09-20T02:02:11.325Z,84.65
2022-09-20T02:04:37.774Z,84.11
2022-09-20T02:07:16.269Z,84.10
2022-09-20T02:10:12.867Z,84.36
2022-09-20T02:13:17.581Z,84.77
2022-09-20T02:16:16.912Z,86.17
2022-09-20T02:18:46.352Z,85.77
2022-09-20T02:21:18.768Z,85.91
2022-09-20T02:24:35.717Z,85.88
2022-09-20T02:27:19.621Z,84.86
2022-09-20T02:29:58.286Z,84.73
2022-09-20T02:33:02.516Z,85.06
2022-09-20T02:35:47.321Z,85.38
2022-09-20T02:38:22.899Z,85.00
2022-09-20T02:41:14.268Z,85.45
2022-09-20T02:43:50.900Z,85.81
2022-09-20T02:46:24.095Z,85.38
2022-09-20T02:49:02.598Z,84.27
2022-09-20T02:51:43.054Z,85.05
2022-09-20T02:54:19.067Z,84.84
2022-09-20T02:56:55.587Z,83.19
2022-09-20T02:59:43.783Z,83.58
2022-09-20T03:02:37.804Z,85.42
2022-09-20T03:05:14.672Z,83.87
2022-09-20T03:08:03.252Z,84.21
2022-09-20T03:10:35.692Z,85.01
2022-09-20T03:13:13.958Z,84.78
2022-09-20T03:16:02.968Z,84.03
2022-09-20T03:18:51.314Z,84.79
2022-09-20T03:22:00.856Z,85.32
2022-09-20T03:24:41.787Z,86.79
2022-09-20T03:27:28.234Z,85.35
2022-09-20T03:30:06.865Z,84.33
2022-09-20T03:32:52.638Z,83.70
2022-09-20T03:35:34.634Z,82.13
2022-09-20T03:38:16.136Z,81.40
2022-09-20T03:41:16.489Z,80.87
2022-09-20T03:44:00.517Z,80.99
2022-09-20T03:46:29.181Z,81.28
2022-09-20T03:49:01.675Z,81.19
2022-09-20T03:51:59.708Z,80.41
2022-09-20T03:54:58.995Z,79.94
2022-09-20T03:57:50.584Z,79.25
2022-09-20T04:00:30.209Z,78.11
2022-09-20T04:03:23.491Z,78.95
2022-09-20T04:05:58.276Z,78.60
2022-09-20T04:08:40.885Z,78.50
2022-09-20T04:11:20.562Z,79.05
2022-09-20T04:14:11.519Z,79.87
2022-09-20T04:16:46.559Z,78.72
2022-09-20T04:19:30.774Z,78.33
2022-09-20T04:22:00.904Z,78.39
2022-09-20T04:24:30.346Z,77.72
2022-09-20T04:27:25.843Z,76.78
2022-09-20T04:30:07.417Z,79.08
2022-09-20T04:32:44.835Z,78.91
2022-09-20T04:36:05.040Z,79.61
2022-09-20T04:38:31.815Z,78.87
2022-09-20T04:41:18.601Z,78.14
2022-09-20T04:44:27.976Z,77.29
2022-09-20T04:47:10.263Z,78.51
2022-09-20T04:50:10.958Z,78.25
2022-09-20T04:52:40.408Z,78.96
2022-09-20T04:55:21.224Z,77.75
2022-09-20T04:58:10.969Z,78.41
2022-09-20T05:01:16.483Z,77.43
2022-09-20T05:04:10.970Z,76.47
2022-09-20T05:06:48.172Z,78.17
2022-09-20T05:09:26.951Z,78.33
2022-09-20T05:12:28.166Z,77.72
2022-09-20T05:15:01.696Z,77.58
2022-09-20T05:17:50.016Z,76.66
2022-09-20T05:20:38.416Z,77.12
2022-09-20T05:23:29.748Z,76.79
2022-09-20T05:26:29.699Z,76.78
2022-09-20T05:29:10.148Z,77.13
2022-09-20T05:32:14.272Z,77.77
2022-09-20T05:34:51.040Z,77.58
2022-09-20T05:37:23.393Z,78.27
2022-09-20T05:39:54.949Z,77.82
2022-09-20T05:42:46.024Z,77.45
2022-09-20T05:45:47.210Z,77.58
2022-09-20T05:48:18.193Z,77.76
2022-09-20T05:51:09.148Z,78.21
2022-09-20T05:54:03.379Z,77.37
2022-09-20T05:56:50.686Z,78.20
2022-09-20T05:59:42.356Z,78.36
2022-09-20T06:02:27.201Z,76.55
2022-09-20T06:05:11.200Z,77.65
2022-09-20T06:08:02.389Z,78.08
2022-09-20T06:10:47.756Z,77.65
2022-09-20T06:13:59.745Z,77.50
2022-09-20T06:16:34.225Z,78.71
2022-09-20T06:19:15.180Z,78.99
2022-09-20T06:21:56.230Z,78.65
2022-09-20T06:24:47.181Z,77.25
2022-09-20T06:27:22.077Z,77.98
2022-09-20T06:29:52.741Z,78.47
2022-09-20T06:32:19.445Z,80.14
2022-09-20T06:34:46.888Z,80.73
2022-09-20T06:37:59.629Z,80.35
2022-09-20T06:41:04.200Z,81.75
2022-09-20T06:43:31.604Z,83.44
2022-09-20T06:45:58.640Z,83.40
2022-09-20T06:48:25.241Z,83.34
2022-09-20T06:50:52.394Z,81.59
2022-09-20T06:53:27.551Z,83.38
2022-09-20T06:55:54.028Z,84.34
2022-09-20T06:58:20.461Z,84.82
2022-09-20T07:00:47.183Z,82.54
2022-09-20T07:03:14.009Z,82.52
2022-09-20T07:05:40.734Z,83.15
2022-09-20T07:08:07.304Z,85.73
2022-09-20T07:10:33.789Z,85.94
2022-09-20T07:13:01.885Z,86.23
2022-09-20T07:15:28.891Z,85.01
2022-09-20T07:17:55.680Z,84.93
2022-09-20T07:20:22.907Z,85.29
2022-09-20T07:22:50.503Z,84.24
2022-09-20T07:25:18.267Z,85.75
2022-09-20T07:27:46.475Z,83.48
2022-09-20T07:30:14.599Z,84.10
2022-09-20T07:32:41.156Z,83.93
2022-09-20T07:35:09.732Z,82.95
2022-09-20T07:37:37.308Z,83.01
2022-09-20T07:40:05.436Z,83.42
2022-09-20T07:42:32.160Z,84.55
2022-09-20T07:44:59.397Z,84.87
2022-09-20T07:47:26.600Z,85.09
2022-09-20T07:49:53.293Z,83.95
2022-09-20T07:52:19.767Z,85.67
2022-09-20T07:54:46.215Z,83.58
2022-09-20T07:57:13.337Z,83.63
2022-09-20T07:59:39.778Z,82.54
2022-09-20T08:02:06.497Z,82.60
2022-09-20T08:04:33.233Z,80.96
2022-09-20T08:07:01.511Z,80.01
2022-09-20T08:09:27.973Z,80.34
2022-09-20T08:11:56.480Z,79.68
2022-09-20T08:14:24.215Z,78.33
2022-09-20T08:16:51.811Z,79.51
2022-09-20T08:19:20.913Z,80.79
2022-09-20T08:21:48.181Z,78.46
2022-09-20T08:24:16.396Z,78.15
2022-09-20T08:26:43.708Z,78.44
2022-09-20T08:29:10.178Z,77.20
2022-09-20T08:31:38.322Z,77.55
2022-09-20T08:34:06.778Z,74.17
2022-09-20T08:36:36.687Z,75.41
2022-09-20T08:41:58.875Z,73.51
2022-09-20T08:44:28.329Z,73.01
2022-09-20T08:47:22.094Z,71.59
2022-09-20T08:49:56.959Z,73.20
2022-09-20T08:52:37.149Z,68.91
2022-09-20T08:55:13.371Z,71.43
2022-09-20T08:57:39.897Z,68.17
2022-09-20T09:00:07.146Z,70.05
2022-09-20T09:02:34.445Z,67.29
2022-09-20T09:05:35.774Z,67.34
2022-09-20T09:08:06.647Z,67.47
2022-09-20T09:10:45.879Z,64.71
2022-09-20T09:13:28.639Z,65.36
2022-09-20T09:16:02.820Z,63.54
2022-09-20T09:18:36.169Z,62.48
2022-09-20T09:21:04.988Z,64.04
2022-09-20T09:23:41.257Z,62.88
2022-09-20T09:26:16.630Z,63.40
2022-09-20T09:28:44.120Z,62.63
2022-09-20T09:31:25.941Z,62.24
2022-09-20T09:33:52.581Z,63.47
2022-09-20T09:36:25.336Z,61.99
2022-09-20T09:39:23.297Z,62.31
2022-09-20T09:41:51.058Z,62.46
2022-09-20T09:44:22.345Z,62.15
2022-09-20T09:46:53.629Z,62.74
2022-09-20T09:49:34.183Z,60.96
2022-09-20T09:52:15.770Z,61.06
2022-09-20T09:54:51.650Z,60.48
2022-09-20T09:57:33.080Z,60.84
2022-09-20T10:00:22.259Z,60.27
2022-09-20T10:03:13.568Z,57.98
2022-09-20T10:06:07.715Z,57.15
2022-09-20T10:08:49.963Z,56.41
2022-09-20T10:11:25.412Z,57.17
2022-09-20T10:14:03.468Z,56.23
2022-09-20T10:16:47.102Z,57.09
2022-09-20T10:19:32.154Z,56.99
2022-09-20T10:22:19.485Z,56.31
2022-09-20T10:25:13.940Z,55.29
2022-09-20T10:27:52.580Z,55.50
2022-09-20T10:30:22.483Z,54.50
2022-09-20T10:32:59.931Z,53.13
2022-09-20T10:35:36.742Z,55.13
2022-09-20T10:38:43.434Z,55.02
2022-09-20T10:41:34.056Z,54.09
2022-09-20T10:44:12.532Z,53.54
2022-09-20T10:46:45.044Z,54.02
2022-09-20T10:49:14.373Z,54.09
2022-09-20T10:51:53.376Z,52.07
2022-09-20T10:54:32.926Z,52.53
2022-09-20T10:57:09.145Z,52.64
2022-09-20T11:00:01.848Z,52.67
2022-09-20T11:02:39.318Z,52.19
2022-09-20T11:05:31.239Z,54.17
2022-09-20T11:08:06.928Z,53.71
2022-09-20T11:10:37.529Z,52.93
2022-09-20T11:13:08.708Z,52.65
2022-09-20T11:15:49.845Z,52.73
2022-09-20T11:18:23.596Z,52.56
2022-09-20T11:21:10.403Z,51.87
2022-09-20T11:23:43.165Z,51.94
2022-09-20T11:26:43.049Z,52.50
2022-09-20T11:29:27.725Z,48.83
2022-09-20T11:32:01.382Z,50.74
2022-09-20T11:34:34.443Z,51.71
2022-09-20T11:37:03.340Z,50.69
2022-09-20T11:39:39.868Z,51.21
2022-09-20T11:42:07.188Z,49.88
2022-09-20T11:44:39.223Z,49.34
2022-09-20T11:47:42.810Z,49.81
2022-09-20T11:50:26.858Z,49.17
2022-09-20T11:53:03.496Z,48.77
2022-09-20T11:55:42.735Z,48.69
2022-09-20T11:58:13.800Z,48.85
2022-09-20T12:00:43.893Z,49.63
2022-09-20T12:03:37.536Z,48.92
2022-09-20T12:06:22.317Z,48.98
2022-09-20T12:08:52.572Z,45.92
2022-09-20T12:11:31.453Z,47.71
2022-09-20T12:14:05.021Z,47.31
2022-09-20T12:16:46.130Z,48.14
2022-09-20T12:19:32.248Z,49.59
2022-09-20T12:21:58.701Z,49.29
2022-09-20T12:24:29.266Z,48.17
2022-09-20T12:26:57.481Z,47.48
2022-09-20T12:29:23.880Z,48.17
2022-09-20T12:31:57.936Z,47.20
2022-09-20T12:34:24.419Z,45.24
2022-09-20T12:36:52.208Z,47.07
2022-09-20T12:39:26.353Z,46.72
2022-09-20T12:42:04.280Z,46.70
2022-09-20T12:44:49.011Z,45.72
2022-09-20T12:47:18.931Z,45.20
2022-09-20T12:50:04.088Z,44.39
2022-09-20T12:52:55.061Z,42.34
2022-09-20T12:55:27.506Z,44.55
2022-09-20T12:58:14.869Z,43.53
2022-09-20T13:01:14.141Z,45.03
2022-09-20T13:03:47.012Z,46.47
2022-09-20T13:06:17.556Z,47.19
2022-09-20T13:09:04.475Z,47.92
2022-09-20T13:11:47.734Z,47.64
2022-09-20T13:14:22.626Z,48.37
2022-09-20T13:16:57.619Z,49.06
2022-09-20T13:35:27.982Z,43.74
2022-09-20T13:38:00.453Z,43.37
2022-09-20T13:40:35.393Z,40.89
2022-09-20T13:43:22.477Z,42.55
2022-09-20T13:45:54.078Z,44.67
2022-09-20T13:48:24.781Z,45.13
2022-09-20T13:50:53.609Z,45.78
2022-09-20T13:53:40.147Z,45.86
2022-09-20T13:56:20.020Z,46.43
2022-09-20T13:58:46.510Z,46.23
2022-09-20T14:01:42.352Z,44.28
2022-09-20T14:04:14.805Z,43.70
2022-09-20T14:06:42.459Z,43.49
2022-09-20T14:09:18.959Z,44.17
2022-09-20T14:11:45.641Z,45.38
2022-09-20T14:14:13.970Z,45.64
2022-09-20T14:16:46.890Z,46.20
2022-09-20T14:19:16.154Z,45.91
2022-09-20T14:21:43.675Z,46.12
2022-09-20T14:24:16.513Z,47.51
2022-09-20T14:26:46.016Z,45.21
2022-09-20T14:29:32.581Z,45.76
2022-09-20T14:32:01.226Z,45.46
2022-09-20T14:34:27.923Z,44.94
2022-09-20T14:37:03.324Z,45.52
2022-09-20T14:39:29.790Z,44.84
2022-09-20T14:41:56.630Z,46.45
2022-09-20T14:44:30.577Z,46.05
2022-09-20T14:46:57.719Z,44.51
2022-09-20T14:49:24.135Z,44.82
2022-09-20T14:51:51.238Z,44.82
2022-09-20T14:54:30.900Z,45.20
2022-09-20T14:56:58.567Z,46.91
2022-09-20T14:59:27.980Z,45.81
2022-09-20T15:02:13.836Z,45.74
2022-09-20T15:04:42.267Z,45.67
2022-09-20T15:07:13.193Z,45.94
2022-09-20T15:09:39.645Z,44.34
2022-09-20T15:12:10.922Z,44.22
2022-09-20T15:14:38.220Z,44.31
2022-09-20T15:17:05.205Z,44.26
2022-09-20T15:19:31.752Z,43.92
2022-09-20T15:21:59.115Z,44.28
2022-09-20T15:24:25.622Z,44.87
2022-09-20T15:26:52.220Z,44.26
2022-09-20T15:29:18.807Z,42.24
2022-09-20T15:31:47.586Z,44.08
2022-09-20T15:34:14.983Z,45.07
2022-09-20T15:36:41.908Z,44.70
2022-09-20T15:39:08.789Z,43.11
2022-09-20T15:41:35.825Z,45.09
2022-09-20T15:44:03.750Z,44.65
2022-09-20T15:46:31.072Z,45.14
2022-09-20T15:49:00.768Z,44.03
2022-09-20T15:51:28.477Z,44.43
2022-09-20T15:53:58.734Z,44.64
2022-09-20T15:56:33.669Z,45.21
2022-09-20T15:59:01.989Z,44.87
2022-09-20T16:01:32.009Z,47.52
2022-09-20T16:03:58.867Z,47.58
2022-09-20T16:06:25.977Z,46.80
2022-09-20T16:08:52.925Z,46.86
2022-09-20T16:11:23.032Z,47.59
2022-09-20T16:13:54.519Z,47.77
2022-09-20T16:16:21.486Z,48.62
2022-09-20T16:19:06.884Z,48.42
2022-09-20T16:21:33.646Z,49.50
2022-09-20T16:24:00.604Z,48.64
2022-09-20T16:26:29.103Z,49.81
2022-09-20T16:28:55.850Z,48.71
2022-09-20T16:31:39.845Z,49.78
2022-09-20T16:34:28.436Z,50.25
2022-09-20T16:36:56.837Z,49.22
2022-09-20T16:39:27.776Z,49.54
2022-09-20T16:41:57.250Z,49.13
2022-09-20T16:44:24.358Z,51.48
2022-09-20T16:46:51.500Z,53.05
2022-09-20T16:49:18.173Z,52.56
2022-09-20T16:51:46.245Z,54.24
2022-09-20T16:54:15.384Z,53.68
2022-09-20T16:56:46.647Z,52.93
2022-09-20T16:59:15.562Z,52.72
2022-09-20T17:01:42.654Z,53.76
2022-09-20T17:04:10.012Z,53.18
2022-09-20T17:06:37.721Z,52.59
2022-09-20T17:09:05.808Z,52.69
2022-09-20T17:11:49.566Z,53.39
2022-09-20T17:14:20.693Z,55.29
2022-09-20T17:16:48.139Z,56.37
2022-09-20T17:19:18.611Z,57.62
2022-09-20T17:21:49.327Z,58.65
2022-09-20T17:24:17.440Z,58.14
2022-09-20T17:26:50.739Z,58.72
2022-09-20T17:29:18.295Z,58.62
2022-09-20T17:31:53.953Z,58.59
2022-09-20T17:34:22.030Z,59.29
2022-09-20T17:37:01.650Z,59.31
2022-09-20T17:39:28.623Z,60.12
2022-09-20T17:41:57.376Z,60.93
2022-09-20T17:44:24.153Z,61.20
2022-09-20T17:46:51.482Z,61.77
2022-09-20T17:49:20.396Z,60.72
2022-09-20T17:51:52.140Z,62.30
2022-09-20T17:54:19.352Z,62.31
2022-09-20T17:57:06.281Z,62.49
2022-09-20T17:59:34.418Z,63.01
2022-09-20T18:02:00.857Z,63.81
2022-09-20T18:04:27.309Z,63.12
2022-09-20T18:06:54.739Z,63.97
2022-09-20T18:09:24.341Z,63.56
2022-09-20T18:11:53.076Z,64.67
2022-09-20T18:14:28.048Z,64.39
2022-09-20T18:16:57.869Z,63.95
2022-09-20T18:19:24.444Z,64.17
2022-09-20T18:21:51.324Z,64.48
2022-09-20T18:24:17.935Z,65.31
2022-09-20T18:26:44.535Z,65.25
2022-09-20T18:29:12.970Z,65.49
2022-09-20T18:31:45.104Z,66.29
2022-09-20T18:34:15.542Z,66.53
2022-09-20T18:37:01.513Z,65.64
2022-09-20T18:39:33.477Z,66.50
2022-09-20T18:42:00.102Z,66.46
2022-09-20T18:44:28.249Z,67.11
2022-09-20T18:47:13.080Z,67.46
2022-09-20T18:49:39.620Z,67.55
2022-09-20T18:52:06.121Z,66.96
2022-09-20T18:54:33.761Z,67.28
2022-09-20T18:57:10.156Z,67.60
2022-09-20T18:59:36.868Z,68.04
2022-09-20T19:02:13.951Z,68.52
2022-09-20T19:04:49.890Z,68.19
2022-09-20T19:07:25.754Z,68.53
2022-09-20T19:10:18.820Z,68.36
2022-09-20T19:13:20.491Z,69.30
2022-09-20T19:16:12.088Z,69.09
2022-09-20T19:18:41.769Z,69.23
2022-09-20T19:24:14.939Z,69.88
2022-09-20T19:26:42.121Z,69.37
2022-09-20T19:29:19.671Z,69.78
2022-09-20T19:31:48.284Z,70.21
2022-09-20T19:34:21.358Z,69.21
2022-09-20T19:37:08.506Z,69.44
2022-09-20T19:40:12.685Z,69.12
2022-09-20T19:43:10.837Z,69.58
2022-09-20T19:46:02.276Z,70.16
2022-09-20T19:48:38.719Z,69.84
2022-09-20T19:51:10.223Z,69.70
2022-09-20T19:53:37.233Z,70.44
2022-09-20T19:56:15.664Z,70.54
2022-09-20T19:58:45.353Z,69.85
2022-09-20T20:01:12.393Z,70.51
2022-09-20T20:03:39.203Z,70.22
2022-09-20T20:06:08.627Z,70.55
2022-09-20T20:08:40.190Z,70.29
2022-09-20T20:11:26.491Z,69.82
2022-09-20T20:14:17.930Z,70.88
2022-09-20T20:17:02.603Z,70.70
2022-09-20T20:19:54.794Z,70.87
2022-09-20T20:22:56.869Z,71.82
2022-09-20T20:25:31.588Z,71.33
2022-09-20T20:27:58.081Z,70.76
2022-09-20T20:30:24.693Z,71.67
2022-09-20T20:32:58.185Z,71.47
2022-09-20T20:35:25.876Z,71.51
2022-09-20T20:37:53.166Z,71.00
2022-09-20T20:40:19.754Z,70.86
2022-09-20T20:42:46.726Z,71.49
2022-09-20T20:45:13.761Z,71.04
2022-09-20T20:47:42.637Z,70.81
2022-09-20T20:50:11.860Z,70.64
2022-09-20T20:52:39.462Z,70.76
2022-09-20T20:55:06.298Z,70.73
2022-09-20T20:57:34.203Z,70.61
2022-09-20T21:00:00.807Z,71.70
2022-09-20T21:02:27.448Z,71.16
2022-09-20T21:04:53.932Z,71.50
2022-09-20T21:07:20.386Z,70.72
2022-09-20T21:09:46.897Z,71.29
2022-09-20T21:12:14.966Z,70.71
2022-09-20T21:15:00.642Z,71.59
2022-09-20T21:17:35.883Z,71.49
2022-09-20T21:20:06.854Z,72.35
2022-09-20T21:22:33.866Z,71.86
2022-09-20T21:25:00.302Z,70.88
2022-09-20T21:27:29.657Z,70.68
2022-09-20T21:29:56.651Z,71.57
2022-09-20T21:32:24.037Z,70.83
2022-09-20T21:34:52.261Z,70.93
2022-09-20T21:37:18.726Z,71.95
2022-09-20T21:39:45.570Z,72.30
2022-09-20T21:42:12.922Z,71.99
2022-09-20T21:44:43.235Z,71.47
2022-09-20T21:47:10.303Z,71.38
2022-09-20T21:49:36.918Z,72.29
2022-09-20T21:52:03.732Z,71.27
2022-09-20T21:54:30.889Z,71.92
2022-09-20T21:56:59.665Z,71.83
2022-09-20T21:59:26.895Z,72.47
2022-09-20T22:01:55.237Z,72.84
2022-09-20T22:04:21.749Z,72.76
2022-09-20T22:06:48.197Z,72.22
2022-09-20T22:09:16.789Z,72.50
2022-09-20T22:11:45.276Z,72.31
2022-09-20T22:14:13.855Z,71.93
2022-09-20T22:16:42.348Z,71.68
2022-09-20T22:19:11.158Z,72.40
2022-09-20T22:21:42.506Z,71.80
2022-09-20T22:24:10.545Z,71.75
2022-09-20T22:26:45.882Z,72.52
2022-09-20T22:29:12.670Z,72.22
2022-09-20T22:31:47.171Z,72.69
2022-09-20T22:34:21.523Z,73.13
2022-09-20T22:36:48.584Z,71.82
2022-09-20T22:39:15.676Z,72.82
2022-09-20T22:41:42.813Z,72.57
2022-09-20T22:44:09.878Z,73.29
2022-09-20T22:46:37.140Z,72.89
2022-09-20T22:49:07.868Z,73.09
2022-09-20T22:51:34.894Z,72.12
2022-09-20T22:54:05.858Z,72.17
2022-09-20T22:57:22.298Z,73.48
2022-09-20T22:59:48.729Z,72.57
2022-09-20T23:02:15.182Z,72.06
2022-09-20T23:04:41.597Z,72.42
2022-09-20T23:07:08.983Z,72.63
2022-09-20T23:09:35.468Z,73.31
2022-09-20T23:12:02.000Z,73.06
2022-09-20T23:14:28.434Z,72.96
2022-09-20T23:16:54.978Z,72.03
2022-09-20T23:19:21.488Z,73.12
2022-09-20T23:21:47.965Z,73.03
2022-09-20T23:24:15.694Z,73.42
2022-09-20T23:26:43.353Z,72.63
2022-09-20T23:29:12.019Z,73.05
2022-09-20T23:31:39.941Z,72.25
2022-09-20T23:34:07.910Z,72.05
2022-09-20T23:36:36.865Z,72.90
2022-09-20T23:39:03.809Z,73.59
2022-09-20T23:41:30.511Z,72.96
2022-09-20T23:43:57.076Z,73.04
2022-09-20T23:46:24.653Z,73.29
2022-09-20T23:48:51.257Z,73.81
2022-09-20T23:51:19.977Z,72.51
2022-09-20T23:53:46.497Z,73.12
2022-09-20T23:56:13.392Z,72.08
2022-09-20T23:58:41.633Z,72.48
